sensor_id;sensor_type;location;lat;lon;timestamp;P1;durP1;ratioP1;P2;durP2;ratioP2
39898;SDS011;25571;47.876;10.642;2024-01-07T00:01:58;5.03;;;4.53;;
39898;SDS011;25571;47.876;10.642;2024-01-07T00:04:24;4.78;;;4.30;;
39898;SDS011;25571;47.876;10.642;2024-01-07T00:06:49;4.20;;;3.72;;
39898;SDS011;25571;47.876;10.642;2024-01-07T00:09:18;4.00;;;3.60;;
39898;SDS011;25571;47.876;10.642;2024-01-07T00:11:44;4.13;;;3.72;;
39898;SDS011;25571;47.876;10.642;2024-01-07T00:14:09;3.65;;;3.30;;
39898;SDS011;25571;47.876;10.642;2024-01-07T00:16:35;5.07;;;4.25;;
39898;SDS011;25571;47.876;10.642;2024-01-07T00:19:01;5.55;;;4.30;;
39898;SDS011;25571;47.876;10.642;2024-01-07T00:21:26;5.82;;;4.30;;
39898;SDS011;25571;47.876;10.642;2024-01-07T00:23:52;5.13;;;4.18;;
39898;SDS011;25571;47.876;10.642;2024-01-07T00:26:18;4.40;;;3.83;;
39898;SDS011;25571;47.876;10.642;2024-01-07T00:28:43;4.60;;;3.90;;
39898;SDS011;25571;47.876;10.642;2024-01-07T00:31:11;4.78;;;4.07;;
39898;SDS011;25571;47.876;10.642;2024-01-07T00:33:37;4.72;;;4.05;;
39898;SDS011;25571;47.876;10.642;2024-01-07T00:36:03;4.90;;;3.72;;
39898;SDS011;25571;47.876;10.642;2024-01-07T00:38:28;5.03;;;3.83;;
39898;SDS011;25571;47.876;10.642;2024-01-07T00:40:54;4.72;;;3.88;;
39898;SDS011;25571;47.876;10.642;2024-01-07T00:43:20;6.40;;;4.50;;
39898;SDS011;25571;47.876;10.642;2024-01-07T00:45:45;6.18;;;4.50;;
39898;SDS011;25571;47.876;10.642;2024-01-07T00:48:11;5.70;;;4.20;;
39898;SDS011;25571;47.876;10.642;2024-01-07T00:50:37;6.25;;;4.35;;
39898;SDS011;25571;47.876;10.642;2024-01-07T00:53:02;5.35;;;4.18;;
39898;SDS011;25571;47.876;10.642;2024-01-07T00:55:28;5.50;;;4.07;;
39898;SDS011;25571;47.876;10.642;2024-01-07T00:57:54;5.60;;;4.45;;
39898;SDS011;25571;47.876;10.642;2024-01-07T01:00:19;6.03;;;4.53;;
39898;SDS011;25571;47.876;10.642;2024-01-07T01:02:45;6.43;;;4.30;;
39898;SDS011;25571;47.876;10.642;2024-01-07T01:05:11;4.95;;;4.05;;
39898;SDS011;25571;47.876;10.642;2024-01-07T01:07:37;5.15;;;4.25;;
39898;SDS011;25571;47.876;10.642;2024-01-07T01:10:02;5.07;;;3.95;;
39898;SDS011;25571;47.876;10.642;2024-01-07T01:12:28;4.50;;;3.53;;
39898;SDS011;25571;47.876;10.642;2024-01-07T01:14:54;3.90;;;3.33;;
39898;SDS011;25571;47.876;10.642;2024-01-07T01:17:20;5.32;;;4.05;;
39898;SDS011;25571;47.876;10.642;2024-01-07T01:19:46;4.53;;;3.83;;
39898;SDS011;25571;47.876;10.642;2024-01-07T01:22:11;5.25;;;4.32;;
39898;SDS011;25571;47.876;10.642;2024-01-07T01:24:37;4.38;;;3.90;;
39898;SDS011;25571;47.876;10.642;2024-01-07T01:27:03;5.38;;;4.30;;
39898;SDS011;25571;47.876;10.642;2024-01-07T01:29:29;3.55;;;3.25;;
39898;SDS011;25571;47.876;10.642;2024-01-07T01:31:54;3.97;;;3.15;;
39898;SDS011;25571;47.876;10.642;2024-01-07T01:34:20;3.75;;;3.22;;
39898;SDS011;25571;47.876;10.642;2024-01-07T01:36:45;4.43;;;3.78;;
39898;SDS011;25571;47.876;10.642;2024-01-07T01:39:11;3.85;;;3.45;;
39898;SDS011;25571;47.876;10.642;2024-01-07T01:41:36;3.88;;;3.38;;
39898;SDS011;25571;47.876;10.642;2024-01-07T01:44:02;4.55;;;3.53;;
39898;SDS011;25571;47.876;10.642;2024-01-07T01:46:28;3.78;;;3.35;;
39898;SDS011;25571;47.876;10.642;2024-01-07T01:48:55;4.18;;;3.78;;
39898;SDS011;25571;47.876;10.642;2024-01-07T01:51:21;3.30;;;3.00;;
39898;SDS011;25571;47.876;10.642;2024-01-07T01:53:48;3.28;;;2.97;;
39898;SDS011;25571;47.876;10.642;2024-01-07T01:56:16;3.40;;;2.58;;
39898;SDS011;25571;47.876;10.642;2024-01-07T01:58:45;3.67;;;2.90;;
39898;SDS011;25571;47.876;10.642;2024-01-07T02:01:11;3.72;;;3.30;;
39898;SDS011;25571;47.876;10.642;2024-01-07T02:03:37;3.15;;;2.72;;
39898;SDS011;25571;47.876;10.642;2024-01-07T02:06:03;3.67;;;3.33;;
39898;SDS011;25571;47.876;10.642;2024-01-07T02:08:29;3.10;;;2.80;;
39898;SDS011;25571;47.876;10.642;2024-01-07T02:10:55;3.40;;;3.10;;
39898;SDS011;25571;47.876;10.642;2024-01-07T02:13:20;3.53;;;3.22;;
39898;SDS011;25571;47.876;10.642;2024-01-07T02:15:46;3.28;;;2.92;;
39898;SDS011;25571;47.876;10.642;2024-01-07T02:18:12;3.08;;;2.83;;
39898;SDS011;25571;47.876;10.642;2024-01-07T02:20:37;3.03;;;2.72;;
39898;SDS011;25571;47.876;10.642;2024-01-07T02:23:03;3.38;;;2.97;;
39898;SDS011;25571;47.876;10.642;2024-01-07T02:25:29;3.65;;;3.00;;
39898;SDS011;25571;47.876;10.642;2024-01-07T02:27:59;3.28;;;2.80;;
39898;SDS011;25571;47.876;10.642;2024-01-07T02:30:25;3.20;;;2.90;;
39898;SDS011;25571;47.876;10.642;2024-01-07T02:32:52;3.58;;;3.10;;
39898;SDS011;25571;47.876;10.642;2024-01-07T02:35:17;4.30;;;2.80;;
39898;SDS011;25571;47.876;10.642;2024-01-07T02:37:43;2.60;;;2.40;;
39898;SDS011;25571;47.876;10.642;2024-01-07T02:40:09;3.15;;;2.85;;
39898;SDS011;25571;47.876;10.642;2024-01-07T02:42:35;2.55;;;2.35;;
39898;SDS011;25571;47.876;10.642;2024-01-07T02:45:00;3.05;;;2.42;;
39898;SDS011;25571;47.876;10.642;2024-01-07T02:47:26;4.63;;;3.35;;
39898;SDS011;25571;47.876;10.642;2024-01-07T02:49:51;3.75;;;3.17;;
39898;SDS011;25571;47.876;10.642;2024-01-07T02:52:17;5.05;;;2.83;;
39898;SDS011;25571;47.876;10.642;2024-01-07T02:54:42;3.72;;;3.15;;
39898;SDS011;25571;47.876;10.642;2024-01-07T02:57:08;4.68;;;3.25;;
39898;SDS011;25571;47.876;10.642;2024-01-07T02:59:34;3.85;;;3.00;;
39898;SDS011;25571;47.876;10.642;2024-01-07T03:02:00;4.40;;;3.53;;
39898;SDS011;25571;47.876;10.642;2024-01-07T03:04:25;3.25;;;2.95;;
39898;SDS011;25571;47.876;10.642;2024-01-07T03:06:51;3.38;;;3.08;;
39898;SDS011;25571;47.876;10.642;2024-01-07T03:09:17;3.75;;;3.20;;
39898;SDS011;25571;47.876;10.642;2024-01-07T03:11:42;3.28;;;2.70;;
39898;SDS011;25571;47.876;10.642;2024-01-07T03:14:09;2.72;;;2.53;;
39898;SDS011;25571;47.876;10.642;2024-01-07T03:16:34;3.20;;;2.92;;
39898;SDS011;25571;47.876;10.642;2024-01-07T03:19:00;3.72;;;3.25;;
39898;SDS011;25571;47.876;10.642;2024-01-07T03:21:27;3.25;;;2.95;;
39898;SDS011;25571;47.876;10.642;2024-01-07T03:23:53;3.20;;;2.90;;
39898;SDS011;25571;47.876;10.642;2024-01-07T03:26:20;3.95;;;3.53;;
39898;SDS011;25571;47.876;10.642;2024-01-07T03:28:45;4.32;;;3.42;;
39898;SDS011;25571;47.876;10.642;2024-01-07T03:31:15;4.05;;;3.65;;
39898;SDS011;25571;47.876;10.642;2024-01-07T03:33:42;3.53;;;3.22;;
39898;SDS011;25571;47.876;10.642;2024-01-07T03:36:12;3.13;;;2.83;;
39898;SDS011;25571;47.876;10.642;2024-01-07T03:38:39;3.15;;;2.85;;
39898;SDS011;25571;47.876;10.642;2024-01-07T03:41:05;3.28;;;2.97;;
39898;SDS011;25571;47.876;10.642;2024-01-07T03:43:31;3.78;;;3.38;;
39898;SDS011;25571;47.876;10.642;2024-01-07T03:45:57;3.42;;;3.13;;
39898;SDS011;25571;47.876;10.642;2024-01-07T03:48:23;3.00;;;2.70;;
39898;SDS011;25571;47.876;10.642;2024-01-07T03:50:49;3.42;;;2.95;;
39898;SDS011;25571;47.876;10.642;2024-01-07T03:53:15;3.22;;;2.92;;
39898;SDS011;25571;47.876;10.642;2024-01-07T03:55:41;3.90;;;3.05;;
39898;SDS011;25571;47.876;10.642;2024-01-07T03:58:06;2.97;;;2.60;;
39898;SDS011;25571;47.876;10.642;2024-01-07T04:00:32;3.45;;;3.13;;
39898;SDS011;25571;47.876;10.642;2024-01-07T04:02:58;3.78;;;3.45;;
39898;SDS011;25571;47.876;10.642;2024-01-07T04:05:24;4.63;;;3.28;;
39898;SDS011;25571;47.876;10.642;2024-01-07T04:07:49;3.20;;;2.90;;
39898;SDS011;25571;47.876;10.642;2024-01-07T04:10:18;3.58;;;2.90;;
39898;SDS011;25571;47.876;10.642;2024-01-07T04:15:10;2.85;;;2.63;;
39898;SDS011;25571;47.876;10.642;2024-01-07T04:17:37;2.65;;;2.45;;
39898;SDS011;25571;47.876;10.642;2024-01-07T04:20:02;3.20;;;2.90;;
39898;SDS011;25571;47.876;10.642;2024-01-07T04:22:28;3.10;;;2.80;;
39898;SDS011;25571;47.876;10.642;2024-01-07T04:24:54;3.15;;;2.85;;
39898;SDS011;25571;47.876;10.642;2024-01-07T04:27:20;3.10;;;2.80;;
39898;SDS011;25571;47.876;10.642;2024-01-07T04:29:45;2.53;;;2.33;;
39898;SDS011;25571;47.876;10.642;2024-01-07T04:32:11;2.83;;;2.55;;
39898;SDS011;25571;47.876;10.642;2024-01-07T04:34:36;3.08;;;2.78;;
39898;SDS011;25571;47.876;10.642;2024-01-07T04:37:02;3.35;;;2.97;;
39898;SDS011;25571;47.876;10.642;2024-01-07T04:39:28;3.58;;;3.00;;
39898;SDS011;25571;47.876;10.642;2024-01-07T04:41:53;3.90;;;3.25;;
39898;SDS011;25571;47.876;10.642;2024-01-07T04:44:19;4.63;;;3.30;;
39898;SDS011;25571;47.876;10.642;2024-01-07T04:46:44;3.60;;;3.15;;
39898;SDS011;25571;47.876;10.642;2024-01-07T04:49:10;3.38;;;2.90;;
39898;SDS011;25571;47.876;10.642;2024-01-07T04:51:35;3.30;;;3.00;;
39898;SDS011;25571;47.876;10.642;2024-01-07T04:54:01;3.15;;;2.85;;
39898;SDS011;25571;47.876;10.642;2024-01-07T04:56:27;3.85;;;3.13;;
39898;SDS011;25571;47.876;10.642;2024-01-07T04:58:53;3.35;;;3.05;;
39898;SDS011;25571;47.876;10.642;2024-01-07T05:01:18;2.63;;;2.40;;
39898;SDS011;25571;47.876;10.642;2024-01-07T05:03:44;3.10;;;2.90;;
39898;SDS011;25571;47.876;10.642;2024-01-07T05:06:09;3.00;;;2.70;;
39898;SDS011;25571;47.876;10.642;2024-01-07T05:08:36;2.80;;;2.60;;
39898;SDS011;25571;47.876;10.642;2024-01-07T05:11:02;2.40;;;2.20;;
39898;SDS011;25571;47.876;10.642;2024-01-07T05:13:30;3.30;;;3.00;;
39898;SDS011;25571;47.876;10.642;2024-01-07T05:15:56;3.47;;;3.00;;
39898;SDS011;25571;47.876;10.642;2024-01-07T05:18:22;3.20;;;2.90;;
39898;SDS011;25571;47.876;10.642;2024-01-07T05:20:48;2.70;;;2.50;;
39898;SDS011;25571;47.876;10.642;2024-01-07T05:23:14;2.53;;;2.33;;
39898;SDS011;25571;47.876;10.642;2024-01-07T05:25:42;2.95;;;2.65;;
39898;SDS011;25571;47.876;10.642;2024-01-07T05:30:35;2.78;;;2.55;;
39898;SDS011;25571;47.876;10.642;2024-01-07T05:33:01;2.40;;;2.20;;
39898;SDS011;25571;47.876;10.642;2024-01-07T05:35:26;3.45;;;3.15;;
39898;SDS011;25571;47.876;10.642;2024-01-07T05:37:52;2.92;;;2.50;;
39898;SDS011;25571;47.876;10.642;2024-01-07T05:40:17;3.10;;;2.70;;
39898;SDS011;25571;47.876;10.642;2024-01-07T05:42:43;3.40;;;3.10;;
39898;SDS011;25571;47.876;10.642;2024-01-07T05:45:09;4.85;;;4.32;;
39898;SDS011;25571;47.876;10.642;2024-01-07T05:47:34;4.43;;;4.03;;
39898;SDS011;25571;47.876;10.642;2024-01-07T05:50:00;4.47;;;4.07;;
39898;SDS011;25571;47.876;10.642;2024-01-07T05:52:27;3.97;;;3.58;;
39898;SDS011;25571;47.876;10.642;2024-01-07T05:54:52;4.22;;;3.90;;
39898;SDS011;25571;47.876;10.642;2024-01-07T05:57:18;3.10;;;2.90;;
39898;SDS011;25571;47.876;10.642;2024-01-07T05:59:44;3.20;;;2.90;;
39898;SDS011;25571;47.876;10.642;2024-01-07T06:02:10;3.13;;;2.83;;
39898;SDS011;25571;47.876;10.642;2024-01-07T06:04:38;4.47;;;4.07;;
39898;SDS011;25571;47.876;10.642;2024-01-07T06:07:04;3.58;;;3.28;;
39898;SDS011;25571;47.876;10.642;2024-01-07T06:09:31;5.10;;;4.60;;
39898;SDS011;25571;47.876;10.642;2024-01-07T06:11:56;4.50;;;4.10;;
39898;SDS011;25571;47.876;10.642;2024-01-07T06:14:22;3.35;;;3.05;;
39898;SDS011;25571;47.876;10.642;2024-01-07T06:16:48;3.00;;;2.80;;
39898;SDS011;25571;47.876;10.642;2024-01-07T06:19:13;2.97;;;2.67;;
39898;SDS011;25571;47.876;10.642;2024-01-07T06:21:41;2.70;;;2.45;;
39898;SDS011;25571;47.876;10.642;2024-01-07T06:24:07;2.58;;;2.38;;
39898;SDS011;25571;47.876;10.642;2024-01-07T06:26:33;2.67;;;2.47;;
39898;SDS011;25571;47.876;10.642;2024-01-07T06:28:59;4.10;;;3.65;;
39898;SDS011;25571;47.876;10.642;2024-01-07T06:31:25;4.38;;;3.40;;
39898;SDS011;25571;47.876;10.642;2024-01-07T06:33:50;3.25;;;2.95;;
39898;SDS011;25571;47.876;10.642;2024-01-07T06:36:16;3.10;;;2.80;;
39898;SDS011;25571;47.876;10.642;2024-01-07T06:38:42;6.32;;;4.38;;
39898;SDS011;25571;47.876;10.642;2024-01-07T06:41:09;4.20;;;3.65;;
39898;SDS011;25571;47.876;10.642;2024-01-07T06:43:35;2.47;;;2.28;;
39898;SDS011;25571;47.876;10.642;2024-01-07T06:46:00;3.08;;;2.88;;
39898;SDS011;25571;47.876;10.642;2024-01-07T06:48:26;2.90;;;2.65;;
39898;SDS011;25571;47.876;10.642;2024-01-07T06:50:51;3.17;;;2.90;;
39898;SDS011;25571;47.876;10.642;2024-01-07T06:53:17;5.07;;;3.85;;
39898;SDS011;25571;47.876;10.642;2024-01-07T06:55:43;5.25;;;3.85;;
39898;SDS011;25571;47.876;10.642;2024-01-07T06:58:09;42.38;;;25.25;;
39898;SDS011;25571;47.876;10.642;2024-01-07T07:00:34;102.50;;;51.75;;
39898;SDS011;25571;47.876;10.642;2024-01-07T07:03:00;87.35;;;43.97;;
39898;SDS011;25571;47.876;10.642;2024-01-07T07:05:25;61.47;;;29.77;;
39898;SDS011;25571;47.876;10.642;2024-01-07T07:07:51;93.68;;;48.97;;
39898;SDS011;25571;47.876;10.642;2024-01-07T07:10:17;57.95;;;32.67;;
39898;SDS011;25571;47.876;10.642;2024-01-07T07:12:43;16.02;;;10.57;;
39898;SDS011;25571;47.876;10.642;2024-01-07T07:15:08;5.50;;;4.90;;
39898;SDS011;25571;47.876;10.642;2024-01-07T07:17:36;6.30;;;5.80;;
39898;SDS011;25571;47.876;10.642;2024-01-07T07:20:03;7.90;;;7.30;;
39898;SDS011;25571;47.876;10.642;2024-01-07T07:22:29;8.38;;;7.68;;
39898;SDS011;25571;47.876;10.642;2024-01-07T07:24:54;5.97;;;5.47;;
39898;SDS011;25571;47.876;10.642;2024-01-07T07:27:21;6.07;;;5.45;;
39898;SDS011;25571;47.876;10.642;2024-01-07T07:29:46;7.63;;;6.68;;
39898;SDS011;25571;47.876;10.642;2024-01-07T07:32:12;6.40;;;5.80;;
39898;SDS011;25571;47.876;10.642;2024-01-07T07:34:38;5.90;;;5.40;;
39898;SDS011;25571;47.876;10.642;2024-01-07T07:37:03;5.53;;;5.03;;
39898;SDS011;25571;47.876;10.642;2024-01-07T07:39:29;4.03;;;3.72;;
39898;SDS011;25571;47.876;10.642;2024-01-07T07:41:54;4.57;;;4.18;;
39898;SDS011;25571;47.876;10.642;2024-01-07T07:44:20;4.20;;;3.80;;
39898;SDS011;25571;47.876;10.642;2024-01-07T07:46:46;7.05;;;6.35;;
39898;SDS011;25571;47.876;10.642;2024-01-07T07:49:11;7.82;;;7.13;;
39898;SDS011;25571;47.876;10.642;2024-01-07T07:51:38;6.22;;;5.57;;
39898;SDS011;25571;47.876;10.642;2024-01-07T07:54:03;4.95;;;4.55;;
39898;SDS011;25571;47.876;10.642;2024-01-07T07:56:29;3.90;;;3.50;;
39898;SDS011;25571;47.876;10.642;2024-01-07T07:58:54;7.43;;;5.63;;
39898;SDS011;25571;47.876;10.642;2024-01-07T08:01:20;5.85;;;4.93;;
39898;SDS011;25571;47.876;10.642;2024-01-07T08:03:46;5.82;;;4.90;;
39898;SDS011;25571;47.876;10.642;2024-01-07T08:06:11;6.38;;;4.97;;
39898;SDS011;25571;47.876;10.642;2024-01-07T08:08:37;5.53;;;4.28;;
39898;SDS011;25571;47.876;10.642;2024-01-07T08:11:02;4.13;;;3.65;;
39898;SDS011;25571;47.876;10.642;2024-01-07T08:13:32;3.72;;;3.42;;
39898;SDS011;25571;47.876;10.642;2024-01-07T08:16:00;3.67;;;3.37;;
39898;SDS011;25571;47.876;10.642;2024-01-07T08:18:25;4.50;;;4.10;;
39898;SDS011;25571;47.876;10.642;2024-01-07T08:20:51;4.90;;;4.20;;
39898;SDS011;25571;47.876;10.642;2024-01-07T08:23:17;5.47;;;4.57;;
39898;SDS011;25571;47.876;10.642;2024-01-07T08:25:42;4.07;;;3.45;;
39898;SDS011;25571;47.876;10.642;2024-01-07T08:28:10;3.67;;;3.35;;
39898;SDS011;25571;47.876;10.642;2024-01-07T08:30:36;4.07;;;3.67;;
39898;SDS011;25571;47.876;10.642;2024-01-07T08:33:01;5.13;;;4.32;;
39898;SDS011;25571;47.876;10.642;2024-01-07T08:35:27;3.80;;;3.28;;
39898;SDS011;25571;47.876;10.642;2024-01-07T08:37:53;4.55;;;3.97;;
39898;SDS011;25571;47.876;10.642;2024-01-07T08:40:18;3.88;;;3.50;;
39898;SDS011;25571;47.876;10.642;2024-01-07T08:42:44;4.55;;;3.55;;
39898;SDS011;25571;47.876;10.642;2024-01-07T08:45:10;4.88;;;4.45;;
39898;SDS011;25571;47.876;10.642;2024-01-07T08:47:36;5.13;;;4.63;;
39898;SDS011;25571;47.876;10.642;2024-01-07T08:50:02;23.42;;;19.27;;
39898;SDS011;25571;47.876;10.642;2024-01-07T08:52:28;44.17;;;25.48;;
39898;SDS011;25571;47.876;10.642;2024-01-07T08:54:54;26.33;;;17.33;;
39898;SDS011;25571;47.876;10.642;2024-01-07T08:57:20;13.13;;;9.98;;
39898;SDS011;25571;47.876;10.642;2024-01-07T08:59:46;7.20;;;6.50;;
39898;SDS011;25571;47.876;10.642;2024-01-07T09:04:40;7.85;;;7.15;;
39898;SDS011;25571;47.876;10.642;2024-01-07T09:07:06;6.75;;;6.13;;
39898;SDS011;25571;47.876;10.642;2024-01-07T09:09:31;6.82;;;6.13;;
39898;SDS011;25571;47.876;10.642;2024-01-07T09:11:58;8.15;;;7.18;;
39898;SDS011;25571;47.876;10.642;2024-01-07T09:14:25;6.70;;;5.97;;
39898;SDS011;25571;47.876;10.642;2024-01-07T09:16:51;7.13;;;6.50;;
39898;SDS011;25571;47.876;10.642;2024-01-07T09:19:16;6.40;;;5.80;;
39898;SDS011;25571;47.876;10.642;2024-01-07T09:21:42;5.70;;;5.10;;
39898;SDS011;25571;47.876;10.642;2024-01-07T09:24:08;6.25;;;5.65;;
39898;SDS011;25571;47.876;10.642;2024-01-07T09:26:34;5.72;;;4.53;;
39898;SDS011;25571;47.876;10.642;2024-01-07T09:29:00;4.30;;;3.90;;
39898;SDS011;25571;47.876;10.642;2024-01-07T09:31:26;5.78;;;3.83;;
39898;SDS011;25571;47.876;10.642;2024-01-07T09:33:52;4.45;;;4.00;;
39898;SDS011;25571;47.876;10.642;2024-01-07T09:36:18;4.70;;;4.10;;
39898;SDS011;25571;47.876;10.642;2024-01-07T09:38:43;5.43;;;4.93;;
39898;SDS011;25571;47.876;10.642;2024-01-07T09:41:09;6.72;;;5.97;;
39898;SDS011;25571;47.876;10.642;2024-01-07T09:43:35;6.88;;;6.18;;
39898;SDS011;25571;47.876;10.642;2024-01-07T09:46:02;6.20;;;5.00;;
39898;SDS011;25571;47.876;10.642;2024-01-07T09:48:28;8.07;;;5.53;;
39898;SDS011;25571;47.876;10.642;2024-01-07T09:50:55;10.27;;;6.88;;
39898;SDS011;25571;47.876;10.642;2024-01-07T09:53:23;6.50;;;4.93;;
39898;SDS011;25571;47.876;10.642;2024-01-07T09:56:25;7.50;;;5.15;;
39898;SDS011;25571;47.876;10.642;2024-01-07T09:58:46;13.63;;;8.82;;
39898;SDS011;25571;47.876;10.642;2024-01-07T10:01:15;9.52;;;6.72;;
39898;SDS011;25571;47.876;10.642;2024-01-07T10:03:42;9.07;;;6.03;;
39898;SDS011;25571;47.876;10.642;2024-01-07T10:06:08;11.43;;;8.20;;
39898;SDS011;25571;47.876;10.642;2024-01-07T10:08:35;12.18;;;8.10;;
39898;SDS011;25571;47.876;10.642;2024-01-07T10:11:01;12.02;;;8.07;;
39898;SDS011;25571;47.876;10.642;2024-01-07T10:13:27;10.40;;;7.35;;
39898;SDS011;25571;47.876;10.642;2024-01-07T10:15:53;12.35;;;8.57;;
39898;SDS011;25571;47.876;10.642;2024-01-07T10:18:19;8.63;;;7.00;;
39898;SDS011;25571;47.876;10.642;2024-01-07T10:20:45;6.88;;;5.43;;
39898;SDS011;25571;47.876;10.642;2024-01-07T10:23:11;8.18;;;5.97;;
39898;SDS011;25571;47.876;10.642;2024-01-07T10:25:37;6.13;;;5.00;;
39898;SDS011;25571;47.876;10.642;2024-01-07T10:28:02;6.60;;;4.82;;
39898;SDS011;25571;47.876;10.642;2024-01-07T10:30:31;7.82;;;5.43;;
39898;SDS011;25571;47.876;10.642;2024-01-07T10:33:00;6.88;;;4.80;;
39898;SDS011;25571;47.876;10.642;2024-01-07T10:35:36;6.82;;;4.95;;
39898;SDS011;25571;47.876;10.642;2024-01-07T10:38:05;5.75;;;4.88;;
39898;SDS011;25571;47.876;10.642;2024-01-07T10:40:31;6.43;;;4.60;;
39898;SDS011;25571;47.876;10.642;2024-01-07T10:43:00;5.80;;;4.72;;
39898;SDS011;25571;47.876;10.642;2024-01-07T10:45:27;6.88;;;5.40;;
39898;SDS011;25571;47.876;10.642;2024-01-07T10:47:54;7.38;;;5.43;;
39898;SDS011;25571;47.876;10.642;2024-01-07T10:50:22;9.05;;;6.05;;
39898;SDS011;25571;47.876;10.642;2024-01-07T10:52:53;9.50;;;6.65;;
39898;SDS011;25571;47.876;10.642;2024-01-07T10:55:24;8.32;;;5.88;;
39898;SDS011;25571;47.876;10.642;2024-01-07T10:57:54;8.77;;;6.72;;
39898;SDS011;25571;47.876;10.642;2024-01-07T11:00:21;9.02;;;6.85;;
39898;SDS011;25571;47.876;10.642;2024-01-07T11:02:53;7.95;;;6.07;;
39898;SDS011;25571;47.876;10.642;2024-01-07T11:05:26;9.05;;;6.30;;
39898;SDS011;25571;47.876;10.642;2024-01-07T11:08:13;10.43;;;6.13;;
39898;SDS011;25571;47.876;10.642;2024-01-07T11:10:57;9.48;;;6.43;;
39898;SDS011;25571;47.876;10.642;2024-01-07T11:13:38;8.43;;;6.47;;
39898;SDS011;25571;47.876;10.642;2024-01-07T11:16:07;8.68;;;6.32;;
39898;SDS011;25571;47.876;10.642;2024-01-07T11:18:39;9.63;;;6.60;;
39898;SDS011;25571;47.876;10.642;2024-01-07T11:21:11;8.35;;;6.43;;
39898;SDS011;25571;47.876;10.642;2024-01-07T11:23:45;8.00;;;5.72;;
39898;SDS011;25571;47.876;10.642;2024-01-07T11:26:11;8.95;;;6.28;;
39898;SDS011;25571;47.876;10.642;2024-01-07T11:28:47;9.48;;;6.20;;
39898;SDS011;25571;47.876;10.642;2024-01-07T11:31:15;12.93;;;8.00;;
39898;SDS011;25571;47.876;10.642;2024-01-07T11:33:45;15.20;;;9.23;;
39898;SDS011;25571;47.876;10.642;2024-01-07T11:36:13;12.85;;;8.55;;
39898;SDS011;25571;47.876;10.642;2024-01-07T11:38:43;7.00;;;6.15;;
39898;SDS011;25571;47.876;10.642;2024-01-07T11:41:15;9.50;;;6.70;;
39898;SDS011;25571;47.876;10.642;2024-01-07T11:43:55;9.13;;;6.47;;
39898;SDS011;25571;47.876;10.642;2024-01-07T11:46:23;8.52;;;6.32;;
39898;SDS011;25571;47.876;10.642;2024-01-07T11:48:50;7.72;;;6.00;;
39898;SDS011;25571;47.876;10.642;2024-01-07T11:51:19;8.43;;;6.30;;
39898;SDS011;25571;47.876;10.642;2024-01-07T11:53:46;9.05;;;6.80;;
39898;SDS011;25571;47.876;10.642;2024-01-07T11:56:13;9.50;;;6.97;;
39898;SDS011;25571;47.876;10.642;2024-01-07T11:58:40;8.75;;;6.22;;
39898;SDS011;25571;47.876;10.642;2024-01-07T12:01:06;8.30;;;5.85;;
39898;SDS011;25571;47.876;10.642;2024-01-07T12:03:31;8.70;;;6.25;;
39898;SDS011;25571;47.876;10.642;2024-01-07T12:05:57;8.23;;;6.18;;
39898;SDS011;25571;47.876;10.642;2024-01-07T12:08:22;6.72;;;4.82;;
39898;SDS011;25571;47.876;10.642;2024-01-07T12:10:49;7.13;;;5.55;;
39898;SDS011;25571;47.876;10.642;2024-01-07T12:13:14;7.80;;;5.88;;
39898;SDS011;25571;47.876;10.642;2024-01-07T12:15:41;9.02;;;5.85;;
39898;SDS011;25571;47.876;10.642;2024-01-07T12:18:06;9.05;;;6.53;;
39898;SDS011;25571;47.876;10.642;2024-01-07T12:20:32;10.15;;;6.60;;
39898;SDS011;25571;47.876;10.642;2024-01-07T12:23:05;9.48;;;6.95;;
39898;SDS011;25571;47.876;10.642;2024-01-07T12:25:31;8.13;;;6.05;;
39898;SDS011;25571;47.876;10.642;2024-01-07T12:27:57;7.05;;;5.40;;
39898;SDS011;25571;47.876;10.642;2024-01-07T12:30:26;8.02;;;5.63;;
39898;SDS011;25571;47.876;10.642;2024-01-07T12:32:52;6.75;;;5.10;;
39898;SDS011;25571;47.876;10.642;2024-01-07T12:35:18;6.78;;;5.20;;
39898;SDS011;25571;47.876;10.642;2024-01-07T12:37:44;7.63;;;6.07;;
39898;SDS011;25571;47.876;10.642;2024-01-07T12:40:10;7.18;;;5.70;;
39898;SDS011;25571;47.876;10.642;2024-01-07T12:42:37;7.55;;;5.55;;
39898;SDS011;25571;47.876;10.642;2024-01-07T12:47:31;6.65;;;5.18;;
39898;SDS011;25571;47.876;10.642;2024-01-07T12:49:57;6.13;;;4.75;;
39898;SDS011;25571;47.876;10.642;2024-01-07T12:52:23;6.45;;;5.25;;
39898;SDS011;25571;47.876;10.642;2024-01-07T12:54:49;11.20;;;7.10;;
39898;SDS011;25571;47.876;10.642;2024-01-07T12:57:14;8.07;;;5.75;;
39898;SDS011;25571;47.876;10.642;2024-01-07T12:59:40;7.00;;;5.13;;
39898;SDS011;25571;47.876;10.642;2024-01-07T13:02:05;7.25;;;5.35;;
39898;SDS011;25571;47.876;10.642;2024-01-07T13:04:31;7.45;;;5.40;;
39898;SDS011;25571;47.876;10.642;2024-01-07T13:06:56;6.25;;;4.82;;
39898;SDS011;25571;47.876;10.642;2024-01-07T13:09:22;5.07;;;4.55;;
39898;SDS011;25571;47.876;10.642;2024-01-07T13:11:49;7.40;;;5.32;;
39898;SDS011;25571;47.876;10.642;2024-01-07T13:14:14;7.07;;;4.57;;
39898;SDS011;25571;47.876;10.642;2024-01-07T13:16:40;6.28;;;4.78;;
39898;SDS011;25571;47.876;10.642;2024-01-07T13:19:05;5.95;;;4.68;;
39898;SDS011;25571;47.876;10.642;2024-01-07T13:21:31;6.03;;;4.55;;
39898;SDS011;25571;47.876;10.642;2024-01-07T13:23:58;6.20;;;4.70;;
39898;SDS011;25571;47.876;10.642;2024-01-07T13:26:26;6.07;;;4.85;;
39898;SDS011;25571;47.876;10.642;2024-01-07T13:28:51;7.43;;;5.22;;
39898;SDS011;25571;47.876;10.642;2024-01-07T13:31:18;5.78;;;4.30;;
39898;SDS011;25571;47.876;10.642;2024-01-07T13:33:43;4.95;;;4.20;;
39898;SDS011;25571;47.876;10.642;2024-01-07T13:36:09;7.90;;;4.32;;
39898;SDS011;25571;47.876;10.642;2024-01-07T13:38:37;5.07;;;4.13;;
39898;SDS011;25571;47.876;10.642;2024-01-07T13:41:03;6.82;;;4.88;;
39898;SDS011;25571;47.876;10.642;2024-01-07T13:43:29;7.00;;;4.88;;
39898;SDS011;25571;47.876;10.642;2024-01-07T13:45:55;5.85;;;4.95;;
39898;SDS011;25571;47.876;10.642;2024-01-07T13:48:21;12.07;;;6.15;;
39898;SDS011;25571;47.876;10.642;2024-01-07T13:50:46;8.35;;;5.97;;
39898;SDS011;25571;47.876;10.642;2024-01-07T13:53:14;11.02;;;6.95;;
39898;SDS011;25571;47.876;10.642;2024-01-07T13:55:40;7.55;;;5.82;;
39898;SDS011;25571;47.876;10.642;2024-01-07T13:58:06;7.85;;;5.97;;
39898;SDS011;25571;47.876;10.642;2024-01-07T14:00:31;8.27;;;5.75;;
39898;SDS011;25571;47.876;10.642;2024-01-07T14:02:57;9.73;;;6.30;;
39898;SDS011;25571;47.876;10.642;2024-01-07T14:05:23;10.52;;;6.00;;
39898;SDS011;25571;47.876;10.642;2024-01-07T14:07:48;7.20;;;5.65;;
39898;SDS011;25571;47.876;10.642;2024-01-07T14:10:14;8.50;;;6.10;;
39898;SDS011;25571;47.876;10.642;2024-01-07T14:12:40;8.55;;;6.05;;
39898;SDS011;25571;47.876;10.642;2024-01-07T14:15:06;9.48;;;6.85;;
39898;SDS011;25571;47.876;10.642;2024-01-07T14:17:34;7.25;;;4.82;;
39898;SDS011;25571;47.876;10.642;2024-01-07T14:19:59;8.57;;;6.32;;
39898;SDS011;25571;47.876;10.642;2024-01-07T14:22:25;8.90;;;6.53;;
39898;SDS011;25571;47.876;10.642;2024-01-07T14:24:51;6.28;;;4.90;;
39898;SDS011;25571;47.876;10.642;2024-01-07T14:27:17;7.80;;;5.70;;
39898;SDS011;25571;47.876;10.642;2024-01-07T14:29:43;7.40;;;5.28;;
39898;SDS011;25571;47.876;10.642;2024-01-07T14:32:10;7.68;;;5.68;;
39898;SDS011;25571;47.876;10.642;2024-01-07T14:34:39;8.35;;;5.88;;
39898;SDS011;25571;47.876;10.642;2024-01-07T14:37:09;8.00;;;6.03;;
39898;SDS011;25571;47.876;10.642;2024-01-07T14:39:38;8.07;;;6.25;;